Time,TemperatureF,DewpointF,PressureIn,WindDirection,WindDirectionDegrees,WindSpeedMPH,WindSpeedGustMPH,Humidity,HourlyPrecipIn,Conditions,Clouds,dailyrainin,SoftwareType,DateUTC
2013-07-31 00:02:00,61.5,59.8,30.09,ESE,112,0.0,-999.0,94,-99.99,,,0.00,Acu-Link.com,2013-07-31 04:02:00,
2013-07-31 00:17:00,61.5,59.8,30.09,East,90,0.0,-999.0,94,-99.99,,,0.00,Acu-Link.com,2013-07-31 04:17:00,
2013-07-31 00:33:00,61.5,59.8,30.09,ESE,112,0.0,-999.0,94,-99.99,,,0.00,Acu-Link.com,2013-07-31 04:33:00,
2013-07-31 00:48:00,61.7,60.3,30.09,NW,315,0.0,-999.0,95,-99.99,,,0.00,Acu-Link.com,2013-07-31 04:48:00,
2013-07-31 01:03:00,61.7,60.3,30.09,NNE,22,0.0,-999.0,95,-99.99,,,0.00,Acu-Link.com,2013-07-31 05:03:00,
2013-07-31 01:19:00,61.3,60.1,30.09,ESE,112,0.0,-999.0,96,-99.99,,,0.00,Acu-Link.com,2013-07-31 05:19:00,
2013-07-31 01:34:00,60.6,59.2,30.09,ESE,112,0.0,-999.0,95,-99.99,,,0.00,Acu-Link.com,2013-07-31 05:34:00,
2013-07-31 01:49:00,60.1,58.7,30.09,SE,135,0.0,-999.0,95,-99.99,,,0.00,Acu-Link.com,2013-07-31 05:49:00,
2013-07-31 02:04:00,59.5,58.6,30.09,South,180,0.0,-999.0,97,-99.99,,,0.00,Acu-Link.com,2013-07-31 06:04:00,
2013-07-31 02:20:00,59.0,58.1,30.09,South,180,0.0,-999.0,97,-99.99,,,0.00,Acu-Link.com,2013-07-31 06:20:00,
2013-07-31 02:35:00,58.6,58.0,30.10,NW,315,0.0,-999.0,98,-99.99,,,0.00,Acu-Link.com,2013-07-31 06:35:00,
2013-07-31 02:50:00,58.1,57.5,30.10,ESE,112,0.0,-999.0,98,-99.99,,,0.00,Acu-Link.com,2013-07-31 06:50:00,
2013-07-31 03:05:00,57.9,57.3,30.10,NNE,22,0.0,-999.0,98,-99.99,,,0.00,Acu-Link.com,2013-07-31 07:05:00,
2013-07-31 03:21:00,57.4,56.8,30.10,NNW,337,0.0,-999.0,98,-99.99,,,0.00,Acu-Link.com,2013-07-31 07:21:00,
2013-07-31 03:36:00,56.8,56.2,30.10,ESE,112,0.0,-999.0,98,-99.99,,,0.00,Acu-Link.com,2013-07-31 07:36:00,
2013-07-31 03:51:00,56.5,55.9,30.10,East,90,0.0,-999.0,98,-99.99,,,0.00,Acu-Link.com,2013-07-31 07:51:00,
2013-07-31 04:06:00,56.1,55.5,30.10,South,180,0.0,-999.0,98,-99.99,,,0.00,Acu-Link.com,2013-07-31 08:06:00,
2013-07-31 04:21:00,55.9,55.3,30.10,ESE,112,0.0,-999.0,98,-99.99,,,0.00,Acu-Link.com,2013-07-31 08:21:00,
2013-07-31 04:37:00,55.4,54.8,30.10,SSW,202,0.0,-999.0,98,-99.99,,,0.00,Acu-Link.com,2013-07-31 08:37:00,
2013-07-31 04:52:00,55.0,54.4,30.11,SE,135,0.0,-999.0,98,-99.99,,,0.00,Acu-Link.com,2013-07-31 08:52:00,
2013-07-31 05:07:00,54.7,54.1,30.12,NNE,22,0.0,-999.0,98,-99.99,,,0.00,Acu-Link.com,2013-07-31 09:07:00,
2013-07-31 05:22:00,54.3,53.7,30.12,ESE,112,0.0,-999.0,98,-99.99,,,0.00,Acu-Link.com,2013-07-31 09:22:00,
2013-07-31 05:37:00,54.1,53.5,30.13,ESE,112,0.0,-999.0,98,-99.99,,,0.00,Acu-Link.com,2013-07-31 09:37:00,
2013-07-31 05:53:00,53.6,53.0,30.13,NNW,337,0.0,-999.0,98,-99.99,,,0.00,Acu-Link.com,2013-07-31 09:53:00,
2013-07-31 06:08:00,53.6,53.0,30.13,ESE,112,0.0,-999.0,98,-99.99,,,0.00,Acu-Link.com,2013-07-31 10:08:00,
2013-07-31 06:23:00,53.6,53.0,30.14,ESE,112,0.0,-999.0,98,-99.99,,,0.00,Acu-Link.com,2013-07-31 10:23:00,
2013-07-31 06:39:00,54.0,53.4,30.14,ESE,112,0.0,-999.0,98,-99.99,,,0.00,Acu-Link.com,2013-07-31 10:39:00,
2013-07-31 06:54:00,54.9,54.3,30.14,ESE,112,0.0,-999.0,98,-99.99,,,0.00,Acu-Link.com,2013-07-31 10:54:00,
2013-07-31 07:09:00,55.8,55.2,30.14,ENE,67,0.0,-999.0,98,-99.99,,,0.00,Acu-Link.com,2013-07-31 11:09:00,
2013-07-31 07:25:00,56.8,56.2,30.14,WNW,292,0.0,-999.0,98,-99.99,,,0.00,Acu-Link.com,2013-07-31 11:25:00,
2013-07-31 07:40:00,57.9,57.3,30.14,South,180,0.0,-999.0,98,-99.99,,,0.00,Acu-Link.com,2013-07-31 11:40:00,
2013-07-31 07:55:00,59.7,59.1,30.15,ENE,67,0.0,-999.0,98,-99.99,,,0.00,Acu-Link.com,2013-07-31 11:55:00,
2013-07-31 08:10:00,61.5,60.9,30.14,NE,45,0.0,-999.0,98,-99.99,,,0.00,Acu-Link.com,2013-07-31 12:10:00,
2013-07-31 08:26:00,63.3,61.5,30.14,NNE,22,2.2,-999.0,94,-99.99,,,0.00,Acu-Link.com,2013-07-31 12:26:00,
2013-07-31 08:57:00,66.0,62.0,30.14,South,180,1.1,-999.0,87,-99.99,,,0.00,Acu-Link.com,2013-07-31 12:57:00,
2013-07-31 09:12:00,67.1,62.8,30.13,SE,135,0.0,-999.0,86,-99.99,,,0.00,Acu-Link.com,2013-07-31 13:12:00,
2013-07-31 09:27:00,67.8,61.0,30.13,WNW,292,1.7,-999.0,79,-99.99,,,0.00,Acu-Link.com,2013-07-31 13:27:00,
2013-07-31 09:43:00,68.9,61.0,30.13,WNW,292,0.0,-999.0,76,-99.99,,,0.00,Acu-Link.com,2013-07-31 13:43:00,
2013-07-31 09:58:00,70.2,61.5,30.12,NE,45,0.0,-999.0,74,-99.99,,,0.00,Acu-Link.com,2013-07-31 13:58:00,
2013-07-31 10:13:00,72.3,62.0,30.12,NNW,337,0.0,-999.0,70,-99.99,,,0.00,Acu-Link.com,2013-07-31 14:13:00,
2013-07-31 10:28:00,74.5,61.1,30.11,NNW,337,0.0,-999.0,63,-99.99,,,0.00,Acu-Link.com,2013-07-31 14:28:00,
2013-07-31 10:44:00,74.1,60.7,30.11,North,0,3.2,-999.0,63,-99.99,,,0.00,Acu-Link.com,2013-07-31 14:44:00,
2013-07-31 10:59:00,75.0,61.5,30.12,ENE,67,0.0,-999.0,63,-99.99,,,0.00,Acu-Link.com,2013-07-31 14:59:00,
2013-07-31 11:14:00,75.6,60.7,30.11,ESE,112,1.7,-999.0,60,-99.99,,,0.00,Acu-Link.com,2013-07-31 15:14:00,
2013-07-31 11:30:00,74.7,59.4,30.11,ESE,112,1.7,-999.0,59,-99.99,,,0.00,Acu-Link.com,2013-07-31 15:30:00,
2013-07-31 11:45:00,76.1,59.7,30.11,South,180,1.7,-999.0,57,-99.99,,,0.00,Acu-Link.com,2013-07-31 15:45:00,
2013-07-31 12:00:00,75.6,58.8,30.10,NNE,22,2.2,-999.0,56,-99.99,,,0.00,Acu-Link.com,2013-07-31 16:00:00,
2013-07-31 12:16:00,75.9,58.6,30.10,East,90,1.7,-999.0,55,-99.99,,,0.00,Acu-Link.com,2013-07-31 16:16:00,
2013-07-31 12:31:00,77.2,58.7,30.10,NNE,22,1.7,-999.0,53,-99.99,,,0.00,Acu-Link.com,2013-07-31 16:31:00,
2013-07-31 12:46:00,78.6,57.8,30.09,NW,315,1.1,-999.0,49,-99.99,,,0.00,Acu-Link.com,2013-07-31 16:46:00,
2013-07-31 13:01:00,82.6,58.5,30.08,ENE,67,2.7,-999.0,44,-99.99,,,0.00,Acu-Link.com,2013-07-31 17:01:00,
2013-07-31 13:32:00,77.9,57.7,30.08,North,0,4.2,-999.0,50,-99.99,,,0.00,Acu-Link.com,2013-07-31 17:32:00,
2013-07-31 13:47:00,77.5,60.0,30.08,SSE,157,0.0,-999.0,55,-99.99,,,0.00,Acu-Link.com,2013-07-31 17:47:00,
2013-07-31 14:02:00,79.3,61.2,30.06,West,270,0.0,-999.0,54,-99.99,,,0.00,Acu-Link.com,2013-07-31 18:02:00,
2013-07-31 14:18:00,77.0,60.1,30.06,SSW,202,0.0,-999.0,56,-99.99,,,0.00,Acu-Link.com,2013-07-31 18:18:00,
2013-07-31 14:33:00,75.9,60.0,30.06,WNW,292,1.7,-999.0,58,-99.99,,,0.00,Acu-Link.com,2013-07-31 18:33:00,
2013-07-31 14:48:00,77.4,61.0,30.06,South,180,0.0,-999.0,57,-99.99,,,0.00,Acu-Link.com,2013-07-31 18:48:00,
2013-07-31 15:04:00,77.0,62.5,30.05,South,180,0.0,-999.0,61,-99.99,,,0.00,Acu-Link.com,2013-07-31 19:04:00,
2013-07-31 15:19:00,74.8,62.7,30.05,NNE,22,1.7,-999.0,66,-99.99,,,0.00,Acu-Link.com,2013-07-31 19:19:00,
2013-07-31 15:34:00,77.7,62.2,30.05,South,180,1.7,-999.0,59,-99.99,,,0.00,Acu-Link.com,2013-07-31 19:34:00,
2013-07-31 15:50:00,77.4,61.9,30.05,West,270,0.0,-999.0,59,-99.99,,,0.00,Acu-Link.com,2013-07-31 19:50:00,
2013-07-31 16:05:00,77.9,62.4,30.04,North,0,1.1,-999.0,59,-99.99,,,0.00,Acu-Link.com,2013-07-31 20:05:00,
2013-07-31 16:20:00,76.3,61.8,30.04,SSE,157,0.0,-999.0,61,-99.99,,,0.00,Acu-Link.com,2013-07-31 20:20:00,
2013-07-31 16:36:00,75.4,64.5,30.04,SSE,157,0.0,-999.0,69,-99.99,,,0.00,Acu-Link.com,2013-07-31 20:36:00,
2013-07-31 16:51:00,75.9,63.7,30.04,South,180,0.0,-999.0,66,-99.99,,,0.00,Acu-Link.com,2013-07-31 20:51:00,
2013-07-31 17:06:00,75.4,62.8,30.04,South,180,0.0,-999.0,65,-99.99,,,0.00,Acu-Link.com,2013-07-31 21:06:00,
2013-07-31 17:22:00,74.7,64.2,30.04,SW,225,0.0,-999.0,70,-99.99,,,0.00,Acu-Link.com,2013-07-31 21:22:00,
2013-07-31 17:37:00,73.6,64.0,30.03,SSE,157,0.0,-999.0,72,-99.99,,,0.00,Acu-Link.com,2013-07-31 21:37:00,
2013-07-31 17:52:00,73.0,63.8,30.04,West,270,0.0,-999.0,73,-99.99,,,0.00,Acu-Link.com,2013-07-31 21:52:00,
2013-07-31 18:08:00,73.4,64.6,30.03,South,180,0.0,-999.0,74,-99.99,,,0.00,Acu-Link.com,2013-07-31 22:08:00,
2013-07-31 18:23:00,72.7,64.3,30.03,ESE,112,0.0,-999.0,75,-99.99,,,0.00,Acu-Link.com,2013-07-31 22:23:00,
2013-07-31 18:38:00,72.7,64.3,30.03,South,180,0.0,-999.0,75,-99.99,,,0.00,Acu-Link.com,2013-07-31 22:38:00,
2013-07-31 18:54:00,72.0,64.0,30.03,SSW,202,0.0,-999.0,76,-99.99,,,0.00,Acu-Link.com,2013-07-31 22:54:00,
2013-07-31 19:09:00,71.2,63.6,30.03,South,180,0.0,-999.0,77,-99.99,,,0.00,Acu-Link.com,2013-07-31 23:09:00,
2013-07-31 19:24:00,70.5,62.9,30.03,SE,135,0.0,-999.0,77,-99.99,,,0.00,Acu-Link.com,2013-07-31 23:24:00,
2013-07-31 19:40:00,69.8,63.0,30.02,SSE,157,0.0,-999.0,79,-99.99,,,0.00,Acu-Link.com,2013-07-31 23:40:00,
2013-07-31 19:55:00,68.9,62.8,30.02,SSE,157,0.0,-999.0,81,-99.99,,,0.00,Acu-Link.com,2013-07-31 23:55:00,
2013-07-31 20:10:00,68.4,63.0,30.02,SSE,157,0.0,-999.0,83,-99.99,,,0.00,Acu-Link.com,2013-08-01 00:10:00,
2013-07-31 20:25:00,67.5,63.2,30.03,South,180,0.0,-999.0,86,-99.99,,,0.00,Acu-Link.com,2013-08-01 00:25:00,
2013-07-31 20:40:00,66.7,63.0,30.03,NNE,22,0.0,-999.0,88,-99.99,,,0.00,Acu-Link.com,2013-08-01 00:40:00,
2013-07-31 20:56:00,65.7,62.7,30.03,South,180,0.0,-999.0,90,-99.99,,,0.00,Acu-Link.com,2013-08-01 00:56:00,
2013-07-31 21:12:00,65.1,62.1,30.03,SSE,157,0.0,-999.0,90,-99.99,,,0.00,Acu-Link.com,2013-08-01 01:12:00,
2013-07-31 21:27:00,64.4,62.0,30.03,SSE,157,0.0,-999.0,92,-99.99,,,0.00,Acu-Link.com,2013-08-01 01:27:00,
2013-07-31 21:42:00,63.9,61.8,30.04,ESE,112,0.0,-999.0,93,-99.99,,,0.00,Acu-Link.com,2013-08-01 01:42:00,
2013-07-31 21:58:00,63.1,61.3,30.03,SE,135,0.0,-999.0,94,-99.99,,,0.00,Acu-Link.com,2013-08-01 01:58:00,
2013-07-31 22:13:00,62.8,61.3,30.03,East,90,0.0,-999.0,95,-99.99,,,0.00,Acu-Link.com,2013-08-01 02:13:00,
2013-07-31 22:28:00,62.2,61.3,30.04,SE,135,0.0,-999.0,97,-99.99,,,0.00,Acu-Link.com,2013-08-01 02:28:00,
2013-07-31 22:43:00,61.7,60.8,30.03,WSW,247,0.0,-999.0,97,-99.99,,,0.00,Acu-Link.com,2013-08-01 02:43:00,
2013-07-31 22:59:00,61.3,60.4,30.04,SSW,202,0.0,-999.0,97,-99.99,,,0.00,Acu-Link.com,2013-08-01 02:59:00,
2013-07-31 23:14:00,61.0,60.4,30.03,NNE,22,0.0,-999.0,98,-99.99,,,0.00,Acu-Link.com,2013-08-01 03:14:00,
2013-07-31 23:29:00,60.6,60.0,30.04,ESE,112,0.0,-999.0,98,-99.99,,,0.00,Acu-Link.com,2013-08-01 03:29:00,
2013-07-31 23:45:00,60.1,59.5,30.03,West,270,0.0,-999.0,98,-99.99,,,0.00,Acu-Link.com,2013-08-01 03:45:00,